sensor_id;sensor_type;location;lat;lon;timestamp;P1;durP1;ratioP1;P2;durP2;ratioP2
16189;SDS011;41754;51.498;7.540;2023-12-07T00:00:02;45.30;;;32.13;;
16189;SDS011;41754;51.498;7.540;2023-12-07T00:02:30;52.53;;;31.77;;
16189;SDS011;41754;51.498;7.540;2023-12-07T00:04:58;47.90;;;31.67;;
16189;SDS011;41754;51.498;7.540;2023-12-07T00:07:26;45.13;;;30.93;;
16189;SDS011;41754;51.498;7.540;2023-12-07T00:09:54;43.20;;;30.37;;
16189;SDS011;41754;51.498;7.540;2023-12-07T00:12:23;43.20;;;30.70;;
16189;SDS011;41754;51.498;7.540;2023-12-07T00:14:51;42.47;;;30.53;;
16189;SDS011;41754;51.498;7.540;2023-12-07T00:17:19;41.23;;;30.80;;
16189;SDS011;41754;51.498;7.540;2023-12-07T00:19:47;42.07;;;30.80;;
16189;SDS011;41754;51.498;7.540;2023-12-07T00:22:14;43.00;;;30.67;;
16189;SDS011;41754;51.498;7.540;2023-12-07T00:24:43;43.80;;;31.50;;
16189;SDS011;41754;51.498;7.540;2023-12-07T00:27:10;41.13;;;29.97;;
16189;SDS011;41754;51.498;7.540;2023-12-07T00:29:40;40.33;;;29.87;;
16189;SDS011;41754;51.498;7.540;2023-12-07T00:32:07;40.07;;;29.50;;
16189;SDS011;41754;51.498;7.540;2023-12-07T00:34:35;40.23;;;28.77;;
16189;SDS011;41754;51.498;7.540;2023-12-07T00:37:03;40.00;;;29.17;;
16189;SDS011;41754;51.498;7.540;2023-12-07T00:39:31;42.97;;;29.70;;
16189;SDS011;41754;51.498;7.540;2023-12-07T00:41:59;42.77;;;30.13;;
16189;SDS011;41754;51.498;7.540;2023-12-07T00:44:27;39.63;;;29.13;;
16189;SDS011;41754;51.498;7.540;2023-12-07T00:46:56;45.63;;;31.80;;
16189;SDS011;41754;51.498;7.540;2023-12-07T00:49:24;42.70;;;30.70;;
16189;SDS011;41754;51.498;7.540;2023-12-07T00:51:51;44.43;;;30.93;;
16189;SDS011;41754;51.498;7.540;2023-12-07T00:54:19;43.10;;;30.17;;
16189;SDS011;41754;51.498;7.540;2023-12-07T00:56:47;45.30;;;31.33;;
16189;SDS011;41754;51.498;7.540;2023-12-07T00:59:15;41.33;;;29.97;;
16189;SDS011;41754;51.498;7.540;2023-12-07T01:01:43;45.50;;;30.17;;
16189;SDS011;41754;51.498;7.540;2023-12-07T01:04:12;44.10;;;30.37;;
16189;SDS011;41754;51.498;7.540;2023-12-07T01:06:40;42.40;;;30.77;;
16189;SDS011;41754;51.498;7.540;2023-12-07T01:09:08;45.23;;;29.90;;
16189;SDS011;41754;51.498;7.540;2023-12-07T01:11:39;41.50;;;30.03;;
16189;SDS011;41754;51.498;7.540;2023-12-07T01:14:07;40.97;;;29.77;;
16189;SDS011;41754;51.498;7.540;2023-12-07T01:16:35;39.93;;;28.57;;
16189;SDS011;41754;51.498;7.540;2023-12-07T01:19:03;40.63;;;28.83;;
16189;SDS011;41754;51.498;7.540;2023-12-07T01:21:32;40.07;;;28.00;;
16189;SDS011;41754;51.498;7.540;2023-12-07T01:24:00;38.33;;;26.67;;
16189;SDS011;41754;51.498;7.540;2023-12-07T01:26:41;42.07;;;29.10;;
16189;SDS011;41754;51.498;7.540;2023-12-07T01:29:08;39.43;;;27.13;;
16189;SDS011;41754;51.498;7.540;2023-12-07T01:31:36;40.60;;;27.00;;
16189;SDS011;41754;51.498;7.540;2023-12-07T01:34:04;40.60;;;28.00;;
16189;SDS011;41754;51.498;7.540;2023-12-07T01:36:33;45.00;;;28.97;;
16189;SDS011;41754;51.498;7.540;2023-12-07T01:39:01;39.93;;;27.57;;
16189;SDS011;41754;51.498;7.540;2023-12-07T01:41:31;40.97;;;29.17;;
16189;SDS011;41754;51.498;7.540;2023-12-07T01:43:58;37.40;;;27.30;;
16189;SDS011;41754;51.498;7.540;2023-12-07T01:46:26;40.10;;;28.30;;
16189;SDS011;41754;51.498;7.540;2023-12-07T01:48:54;41.87;;;28.27;;
16189;SDS011;41754;51.498;7.540;2023-12-07T01:51:22;43.27;;;29.10;;
16189;SDS011;41754;51.498;7.540;2023-12-07T01:53:51;40.57;;;28.03;;
16189;SDS011;41754;51.498;7.540;2023-12-07T01:56:20;34.27;;;25.40;;
16189;SDS011;41754;51.498;7.540;2023-12-07T01:58:48;41.00;;;25.43;;
16189;SDS011;41754;51.498;7.540;2023-12-07T02:01:17;38.57;;;27.37;;
16189;SDS011;41754;51.498;7.540;2023-12-07T02:03:45;37.17;;;28.27;;
16189;SDS011;41754;51.498;7.540;2023-12-07T02:06:13;40.23;;;26.93;;
16189;SDS011;41754;51.498;7.540;2023-12-07T02:08:42;39.73;;;27.70;;
16189;SDS011;41754;51.498;7.540;2023-12-07T02:11:12;39.83;;;28.63;;
16189;SDS011;41754;51.498;7.540;2023-12-07T02:13:40;38.03;;;26.13;;
16189;SDS011;41754;51.498;7.540;2023-12-07T02:16:11;37.13;;;26.80;;
16189;SDS011;41754;51.498;7.540;2023-12-07T02:18:46;39.37;;;27.73;;
16189;SDS011;41754;51.498;7.540;2023-12-07T02:21:21;37.70;;;26.20;;
16189;SDS011;41754;51.498;7.540;2023-12-07T02:23:52;37.20;;;25.60;;
16189;SDS011;41754;51.498;7.540;2023-12-07T02:28:57;34.30;;;24.30;;
16189;SDS011;41754;51.498;7.540;2023-12-07T02:31:25;40.70;;;25.87;;
16189;SDS011;41754;51.498;7.540;2023-12-07T02:33:53;37.53;;;25.47;;
16189;SDS011;41754;51.498;7.540;2023-12-07T02:36:22;37.97;;;25.30;;
16189;SDS011;41754;51.498;7.540;2023-12-07T02:38:52;39.23;;;25.37;;
16189;SDS011;41754;51.498;7.540;2023-12-07T02:41:23;33.90;;;24.23;;
16189;SDS011;41754;51.498;7.540;2023-12-07T02:43:54;33.80;;;23.40;;
16189;SDS011;41754;51.498;7.540;2023-12-07T02:46:23;36.73;;;24.17;;
16189;SDS011;41754;51.498;7.540;2023-12-07T02:48:52;33.77;;;22.93;;
16189;SDS011;41754;51.498;7.540;2023-12-07T02:51:20;30.90;;;22.20;;
16189;SDS011;41754;51.498;7.540;2023-12-07T02:53:48;32.27;;;22.93;;
16189;SDS011;41754;51.498;7.540;2023-12-07T02:56:16;35.73;;;23.17;;
16189;SDS011;41754;51.498;7.540;2023-12-07T02:58:44;32.97;;;23.37;;
16189;SDS011;41754;51.498;7.540;2023-12-07T03:01:13;37.50;;;24.37;;
16189;SDS011;41754;51.498;7.540;2023-12-07T03:03:41;37.27;;;25.43;;
16189;SDS011;41754;51.498;7.540;2023-12-07T03:06:09;36.37;;;24.40;;
16189;SDS011;41754;51.498;7.540;2023-12-07T03:08:37;36.07;;;25.17;;
16189;SDS011;41754;51.498;7.540;2023-12-07T03:11:06;39.63;;;25.90;;
16189;SDS011;41754;51.498;7.540;2023-12-07T03:13:34;36.60;;;24.57;;
16189;SDS011;41754;51.498;7.540;2023-12-07T03:16:06;38.90;;;26.47;;
16189;SDS011;41754;51.498;7.540;2023-12-07T03:18:36;40.17;;;26.57;;
16189;SDS011;41754;51.498;7.540;2023-12-07T03:21:04;37.93;;;24.93;;
16189;SDS011;41754;51.498;7.540;2023-12-07T03:23:32;40.43;;;27.47;;
16189;SDS011;41754;51.498;7.540;2023-12-07T03:26:00;41.83;;;27.37;;
16189;SDS011;41754;51.498;7.540;2023-12-07T03:28:28;41.10;;;27.10;;
16189;SDS011;41754;51.498;7.540;2023-12-07T03:30:56;39.43;;;26.90;;
16189;SDS011;41754;51.498;7.540;2023-12-07T03:33:24;40.87;;;27.00;;
16189;SDS011;41754;51.498;7.540;2023-12-07T03:35:53;43.07;;;25.90;;
16189;SDS011;41754;51.498;7.540;2023-12-07T03:38:21;44.60;;;27.23;;
16189;SDS011;41754;51.498;7.540;2023-12-07T03:40:49;40.57;;;26.27;;
16189;SDS011;41754;51.498;7.540;2023-12-07T03:43:17;38.97;;;25.57;;
16189;SDS011;41754;51.498;7.540;2023-12-07T03:45:46;43.67;;;28.13;;
16189;SDS011;41754;51.498;7.540;2023-12-07T03:48:14;40.53;;;27.17;;
16189;SDS011;41754;51.498;7.540;2023-12-07T03:50:42;43.83;;;27.00;;
16189;SDS011;41754;51.498;7.540;2023-12-07T03:53:11;42.47;;;27.23;;
16189;SDS011;41754;51.498;7.540;2023-12-07T03:55:39;39.60;;;26.83;;
16189;SDS011;41754;51.498;7.540;2023-12-07T03:58:07;41.23;;;27.90;;
16189;SDS011;41754;51.498;7.540;2023-12-07T04:00:34;45.27;;;28.80;;
16189;SDS011;41754;51.498;7.540;2023-12-07T04:03:02;46.90;;;27.93;;
16189;SDS011;41754;51.498;7.540;2023-12-07T04:05:30;39.23;;;26.90;;
16189;SDS011;41754;51.498;7.540;2023-12-07T04:07:58;47.63;;;29.33;;
16189;SDS011;41754;51.498;7.540;2023-12-07T04:10:27;48.20;;;29.07;;
16189;SDS011;41754;51.498;7.540;2023-12-07T04:12:55;49.00;;;28.33;;
16189;SDS011;41754;51.498;7.540;2023-12-07T04:15:23;48.33;;;29.07;;
16189;SDS011;41754;51.498;7.540;2023-12-07T04:17:51;51.90;;;30.43;;
16189;SDS011;41754;51.498;7.540;2023-12-07T04:20:20;45.27;;;28.80;;
16189;SDS011;41754;51.498;7.540;2023-12-07T04:22:48;52.33;;;29.90;;
16189;SDS011;41754;51.498;7.540;2023-12-07T04:25:15;54.90;;;31.03;;
16189;SDS011;41754;51.498;7.540;2023-12-07T04:27:45;48.33;;;29.93;;
16189;SDS011;41754;51.498;7.540;2023-12-07T04:30:13;48.03;;;29.47;;
16189;SDS011;41754;51.498;7.540;2023-12-07T04:32:41;51.63;;;31.13;;
16189;SDS011;41754;51.498;7.540;2023-12-07T04:35:09;51.53;;;30.60;;
16189;SDS011;41754;51.498;7.540;2023-12-07T04:37:36;51.10;;;30.93;;
16189;SDS011;41754;51.498;7.540;2023-12-07T04:40:05;46.90;;;29.57;;
16189;SDS011;41754;51.498;7.540;2023-12-07T04:42:34;46.47;;;28.77;;
16189;SDS011;41754;51.498;7.540;2023-12-07T04:45:03;51.77;;;30.50;;
16189;SDS011;41754;51.498;7.540;2023-12-07T04:47:32;51.47;;;30.53;;
16189;SDS011;41754;51.498;7.540;2023-12-07T04:50:00;50.97;;;29.43;;
16189;SDS011;41754;51.498;7.540;2023-12-07T04:52:28;50.80;;;30.10;;
16189;SDS011;41754;51.498;7.540;2023-12-07T04:54:57;45.30;;;28.73;;
16189;SDS011;41754;51.498;7.540;2023-12-07T04:57:26;45.80;;;28.83;;
16189;SDS011;41754;51.498;7.540;2023-12-07T04:59:54;41.17;;;26.07;;
16189;SDS011;41754;51.498;7.540;2023-12-07T05:02:23;39.10;;;27.00;;
16189;SDS011;41754;51.498;7.540;2023-12-07T05:04:51;43.83;;;28.47;;
16189;SDS011;41754;51.498;7.540;2023-12-07T05:07:19;41.43;;;26.77;;
16189;SDS011;41754;51.498;7.540;2023-12-07T05:09:48;38.10;;;26.60;;
16189;SDS011;41754;51.498;7.540;2023-12-07T05:12:17;44.70;;;27.73;;
16189;SDS011;41754;51.498;7.540;2023-12-07T05:14:45;41.37;;;26.20;;
16189;SDS011;41754;51.498;7.540;2023-12-07T05:17:13;43.67;;;28.40;;
16189;SDS011;41754;51.498;7.540;2023-12-07T05:19:43;42.73;;;26.97;;
16189;SDS011;41754;51.498;7.540;2023-12-07T05:22:11;41.23;;;26.53;;
16189;SDS011;41754;51.498;7.540;2023-12-07T05:24:39;36.47;;;25.80;;
16189;SDS011;41754;51.498;7.540;2023-12-07T05:27:07;37.47;;;25.00;;
16189;SDS011;41754;51.498;7.540;2023-12-07T05:29:35;41.53;;;26.17;;
16189;SDS011;41754;51.498;7.540;2023-12-07T05:32:05;38.73;;;24.37;;
16189;SDS011;41754;51.498;7.540;2023-12-07T05:34:34;39.30;;;24.80;;
16189;SDS011;41754;51.498;7.540;2023-12-07T05:37:04;38.53;;;24.43;;
16189;SDS011;41754;51.498;7.540;2023-12-07T05:39:31;37.77;;;24.70;;
16189;SDS011;41754;51.498;7.540;2023-12-07T05:41:59;34.47;;;23.23;;
16189;SDS011;41754;51.498;7.540;2023-12-07T05:44:26;37.43;;;24.67;;
16189;SDS011;41754;51.498;7.540;2023-12-07T05:46:54;36.03;;;23.40;;
16189;SDS011;41754;51.498;7.540;2023-12-07T05:49:24;33.33;;;23.37;;
16189;SDS011;41754;51.498;7.540;2023-12-07T05:51:51;36.37;;;24.03;;
16189;SDS011;41754;51.498;7.540;2023-12-07T05:54:21;34.73;;;23.83;;
16189;SDS011;41754;51.498;7.540;2023-12-07T05:56:49;32.80;;;22.00;;
16189;SDS011;41754;51.498;7.540;2023-12-07T05:59:17;33.97;;;22.17;;
16189;SDS011;41754;51.498;7.540;2023-12-07T06:01:45;31.00;;;21.87;;
16189;SDS011;41754;51.498;7.540;2023-12-07T06:04:12;34.53;;;23.27;;
16189;SDS011;41754;51.498;7.540;2023-12-07T06:06:42;34.40;;;22.60;;
16189;SDS011;41754;51.498;7.540;2023-12-07T06:09:10;32.10;;;22.60;;
16189;SDS011;41754;51.498;7.540;2023-12-07T06:11:39;32.10;;;21.43;;
16189;SDS011;41754;51.498;7.540;2023-12-07T06:14:07;28.07;;;20.57;;
16189;SDS011;41754;51.498;7.540;2023-12-07T06:16:35;31.07;;;20.70;;
16189;SDS011;41754;51.498;7.540;2023-12-07T06:19:03;23.53;;;18.13;;
16189;SDS011;41754;51.498;7.540;2023-12-07T06:21:31;27.23;;;19.50;;
16189;SDS011;41754;51.498;7.540;2023-12-07T06:23:59;27.07;;;18.80;;
16189;SDS011;41754;51.498;7.540;2023-12-07T06:26:27;28.60;;;20.87;;
16189;SDS011;41754;51.498;7.540;2023-12-07T06:28:56;27.23;;;20.40;;
16189;SDS011;41754;51.498;7.540;2023-12-07T06:31:24;27.63;;;20.43;;
16189;SDS011;41754;51.498;7.540;2023-12-07T06:33:52;28.70;;;19.10;;
16189;SDS011;41754;51.498;7.540;2023-12-07T06:36:20;25.90;;;19.30;;
16189;SDS011;41754;51.498;7.540;2023-12-07T06:38:48;29.17;;;19.17;;
16189;SDS011;41754;51.498;7.540;2023-12-07T06:41:16;27.47;;;20.10;;
16189;SDS011;41754;51.498;7.540;2023-12-07T06:43:44;30.07;;;20.33;;
16189;SDS011;41754;51.498;7.540;2023-12-07T06:46:13;28.77;;;20.27;;
16189;SDS011;41754;51.498;7.540;2023-12-07T06:48:43;28.27;;;20.13;;
16189;SDS011;41754;51.498;7.540;2023-12-07T06:51:11;27.73;;;20.73;;
16189;SDS011;41754;51.498;7.540;2023-12-07T06:53:40;28.40;;;21.03;;
16189;SDS011;41754;51.498;7.540;2023-12-07T06:56:08;29.43;;;21.07;;
16189;SDS011;41754;51.498;7.540;2023-12-07T06:58:36;34.50;;;23.33;;
16189;SDS011;41754;51.498;7.540;2023-12-07T07:01:04;31.50;;;22.20;;
16189;SDS011;41754;51.498;7.540;2023-12-07T07:03:34;30.83;;;22.27;;
16189;SDS011;41754;51.498;7.540;2023-12-07T07:06:02;29.97;;;21.73;;
16189;SDS011;41754;51.498;7.540;2023-12-07T07:08:31;30.73;;;21.37;;
16189;SDS011;41754;51.498;7.540;2023-12-07T07:10:59;31.30;;;21.80;;
16189;SDS011;41754;51.498;7.540;2023-12-07T07:13:26;33.10;;;22.33;;
16189;SDS011;41754;51.498;7.540;2023-12-07T07:15:54;32.87;;;22.67;;
16189;SDS011;41754;51.498;7.540;2023-12-07T07:18:22;31.43;;;21.67;;
16189;SDS011;41754;51.498;7.540;2023-12-07T07:20:53;30.17;;;22.43;;
16189;SDS011;41754;51.498;7.540;2023-12-07T07:23:20;30.37;;;20.93;;
16189;SDS011;41754;51.498;7.540;2023-12-07T07:25:48;30.60;;;22.80;;
16189;SDS011;41754;51.498;7.540;2023-12-07T07:28:16;30.60;;;22.27;;
16189;SDS011;41754;51.498;7.540;2023-12-07T07:30:44;33.40;;;23.50;;
16189;SDS011;41754;51.498;7.540;2023-12-07T07:33:12;33.13;;;22.47;;
16189;SDS011;41754;51.498;7.540;2023-12-07T07:35:40;30.80;;;23.23;;
16189;SDS011;41754;51.498;7.540;2023-12-07T07:38:09;39.53;;;27.13;;
16189;SDS011;41754;51.498;7.540;2023-12-07T07:40:37;30.63;;;21.73;;
16189;SDS011;41754;51.498;7.540;2023-12-07T07:43:04;33.43;;;22.30;;
16189;SDS011;41754;51.498;7.540;2023-12-07T07:45:33;31.40;;;21.97;;
16189;SDS011;41754;51.498;7.540;2023-12-07T07:48:01;35.27;;;23.63;;
16189;SDS011;41754;51.498;7.540;2023-12-07T07:50:29;34.40;;;23.30;;
16189;SDS011;41754;51.498;7.540;2023-12-07T07:52:57;29.73;;;22.03;;
16189;SDS011;41754;51.498;7.540;2023-12-07T07:55:26;34.67;;;22.80;;
16189;SDS011;41754;51.498;7.540;2023-12-07T07:57:54;34.10;;;22.53;;
16189;SDS011;41754;51.498;7.540;2023-12-07T08:00:21;32.13;;;22.20;;
16189;SDS011;41754;51.498;7.540;2023-12-07T08:02:52;32.70;;;21.77;;
16189;SDS011;41754;51.498;7.540;2023-12-07T08:05:20;34.83;;;24.27;;
16189;SDS011;41754;51.498;7.540;2023-12-07T08:07:48;32.83;;;23.00;;
16189;SDS011;41754;51.498;7.540;2023-12-07T08:10:16;33.50;;;23.43;;
16189;SDS011;41754;51.498;7.540;2023-12-07T08:12:45;36.10;;;23.57;;
16189;SDS011;41754;51.498;7.540;2023-12-07T08:15:13;35.70;;;23.60;;
16189;SDS011;41754;51.498;7.540;2023-12-07T08:17:41;33.93;;;23.67;;
16189;SDS011;41754;51.498;7.540;2023-12-07T08:20:09;33.63;;;22.70;;
16189;SDS011;41754;51.498;7.540;2023-12-07T08:22:39;29.97;;;21.33;;
16189;SDS011;41754;51.498;7.540;2023-12-07T08:25:07;31.33;;;22.40;;
16189;SDS011;41754;51.498;7.540;2023-12-07T08:27:37;35.07;;;23.80;;
16189;SDS011;41754;51.498;7.540;2023-12-07T08:30:07;33.20;;;22.73;;
16189;SDS011;41754;51.498;7.540;2023-12-07T08:32:36;28.73;;;20.43;;
16189;SDS011;41754;51.498;7.540;2023-12-07T08:35:05;30.70;;;22.27;;
16189;SDS011;41754;51.498;7.540;2023-12-07T08:37:36;28.97;;;20.40;;
16189;SDS011;41754;51.498;7.540;2023-12-07T08:40:05;29.07;;;20.67;;
16189;SDS011;41754;51.498;7.540;2023-12-07T08:42:33;25.00;;;19.67;;
16189;SDS011;41754;51.498;7.540;2023-12-07T08:45:01;25.13;;;18.83;;
16189;SDS011;41754;51.498;7.540;2023-12-07T08:47:31;29.50;;;20.63;;
16189;SDS011;41754;51.498;7.540;2023-12-07T08:49:59;22.40;;;17.77;;
16189;SDS011;41754;51.498;7.540;2023-12-07T08:52:26;25.97;;;18.67;;
16189;SDS011;41754;51.498;7.540;2023-12-07T08:55:10;24.30;;;17.83;;
16189;SDS011;41754;51.498;7.540;2023-12-07T08:57:38;25.10;;;19.17;;
16189;SDS011;41754;51.498;7.540;2023-12-07T09:00:06;24.53;;;18.73;;
16189;SDS011;41754;51.498;7.540;2023-12-07T09:02:36;23.53;;;18.23;;
16189;SDS011;41754;51.498;7.540;2023-12-07T09:05:13;23.90;;;17.93;;
16189;SDS011;41754;51.498;7.540;2023-12-07T09:07:41;25.90;;;20.10;;
16189;SDS011;41754;51.498;7.540;2023-12-07T09:10:09;24.30;;;18.70;;
16189;SDS011;41754;51.498;7.540;2023-12-07T09:12:37;21.70;;;17.17;;
16189;SDS011;41754;51.498;7.540;2023-12-07T09:15:06;24.30;;;18.40;;
16189;SDS011;41754;51.498;7.540;2023-12-07T09:17:37;23.43;;;18.53;;
16189;SDS011;41754;51.498;7.540;2023-12-07T09:20:07;21.17;;;16.43;;
16189;SDS011;41754;51.498;7.540;2023-12-07T09:22:39;20.87;;;16.67;;
16189;SDS011;41754;51.498;7.540;2023-12-07T09:25:08;27.43;;;19.10;;
16189;SDS011;41754;51.498;7.540;2023-12-07T09:27:36;22.60;;;17.57;;
16189;SDS011;41754;51.498;7.540;2023-12-07T09:30:05;22.07;;;16.63;;
16189;SDS011;41754;51.498;7.540;2023-12-07T09:32:34;19.20;;;15.87;;
16189;SDS011;41754;51.498;7.540;2023-12-07T09:35:06;19.63;;;16.37;;
16189;SDS011;41754;51.498;7.540;2023-12-07T09:37:41;22.30;;;16.87;;
16189;SDS011;41754;51.498;7.540;2023-12-07T09:40:13;19.57;;;15.67;;
16189;SDS011;41754;51.498;7.540;2023-12-07T09:42:43;22.60;;;16.57;;
16189;SDS011;41754;51.498;7.540;2023-12-07T09:45:12;19.13;;;15.53;;
16189;SDS011;41754;51.498;7.540;2023-12-07T09:47:40;19.40;;;15.13;;
16189;SDS011;41754;51.498;7.540;2023-12-07T09:50:11;21.43;;;15.20;;
16189;SDS011;41754;51.498;7.540;2023-12-07T09:52:40;18.63;;;15.13;;
16189;SDS011;41754;51.498;7.540;2023-12-07T09:55:22;14.50;;;12.83;;
16189;SDS011;41754;51.498;7.540;2023-12-07T09:57:51;17.93;;;14.50;;
16189;SDS011;41754;51.498;7.540;2023-12-07T10:00:21;18.47;;;16.00;;
16189;SDS011;41754;51.498;7.540;2023-12-07T10:02:49;15.93;;;11.63;;
16189;SDS011;41754;51.498;7.540;2023-12-07T10:05:20;15.23;;;13.37;;
16189;SDS011;41754;51.498;7.540;2023-12-07T10:07:49;13.70;;;12.30;;
16189;SDS011;41754;51.498;7.540;2023-12-07T10:10:17;14.73;;;11.93;;
16189;SDS011;41754;51.498;7.540;2023-12-07T10:12:46;16.63;;;13.37;;
16189;SDS011;41754;51.498;7.540;2023-12-07T10:15:16;18.17;;;13.13;;
16189;SDS011;41754;51.498;7.540;2023-12-07T10:17:46;14.03;;;11.77;;
16189;SDS011;41754;51.498;7.540;2023-12-07T10:20:16;12.63;;;10.17;;
16189;SDS011;41754;51.498;7.540;2023-12-07T10:22:46;13.90;;;10.13;;
16189;SDS011;41754;51.498;7.540;2023-12-07T10:25:14;13.27;;;9.52;;
16189;SDS011;41754;51.498;7.540;2023-12-07T10:27:43;11.70;;;10.10;;
16189;SDS011;41754;51.498;7.540;2023-12-07T10:30:11;12.48;;;9.80;;
16189;SDS011;41754;51.498;7.540;2023-12-07T10:32:39;10.90;;;9.32;;
16189;SDS011;41754;51.498;7.540;2023-12-07T10:35:07;10.05;;;8.27;;
16189;SDS011;41754;51.498;7.540;2023-12-07T10:37:36;8.80;;;7.90;;
16189;SDS011;41754;51.498;7.540;2023-12-07T10:40:06;9.00;;;6.45;;
16189;SDS011;41754;51.498;7.540;2023-12-07T10:42:36;9.63;;;7.45;;
16189;SDS011;41754;51.498;7.540;2023-12-07T10:45:05;9.07;;;6.63;;
16189;SDS011;41754;51.498;7.540;2023-12-07T10:47:35;10.45;;;7.22;;
16189;SDS011;41754;51.498;7.540;2023-12-07T10:50:05;8.65;;;6.97;;
16189;SDS011;41754;51.498;7.540;2023-12-07T10:52:39;8.40;;;6.63;;
16189;SDS011;41754;51.498;7.540;2023-12-07T10:55:15;8.40;;;6.70;;
16189;SDS011;41754;51.498;7.540;2023-12-07T10:57:45;7.55;;;5.90;;
16189;SDS011;41754;51.498;7.540;2023-12-07T11:00:15;9.25;;;6.53;;
16189;SDS011;41754;51.498;7.540;2023-12-07T11:02:52;7.30;;;6.60;;
16189;SDS011;41754;51.498;7.540;2023-12-07T11:05:20;7.15;;;6.45;;
16189;SDS011;41754;51.498;7.540;2023-12-07T11:07:50;8.32;;;6.65;;
16189;SDS011;41754;51.498;7.540;2023-12-07T11:10:27;10.13;;;6.93;;
16189;SDS011;41754;51.498;7.540;2023-12-07T11:13:05;9.27;;;6.72;;
16189;SDS011;41754;51.498;7.540;2023-12-07T11:15:39;10.40;;;7.32;;
16189;SDS011;41754;51.498;7.540;2023-12-07T11:18:08;9.65;;;7.60;;
16189;SDS011;41754;51.498;7.540;2023-12-07T11:20:39;10.57;;;8.38;;
16189;SDS011;41754;51.498;7.540;2023-12-07T11:23:08;11.68;;;8.48;;
16189;SDS011;41754;51.498;7.540;2023-12-07T11:25:37;9.52;;;8.27;;
16189;SDS011;41754;51.498;7.540;2023-12-07T11:28:06;10.10;;;8.38;;
16189;SDS011;41754;51.498;7.540;2023-12-07T11:30:36;8.25;;;7.28;;
16189;SDS011;41754;51.498;7.540;2023-12-07T11:33:04;9.15;;;7.47;;
16189;SDS011;41754;51.498;7.540;2023-12-07T11:35:33;9.25;;;7.60;;
16189;SDS011;41754;51.498;7.540;2023-12-07T11:38:30;10.38;;;6.72;;
16189;SDS011;41754;51.498;7.540;2023-12-07T11:41:00;11.13;;;6.72;;
16189;SDS011;41754;51.498;7.540;2023-12-07T11:43:41;10.35;;;6.85;;
16189;SDS011;41754;51.498;7.540;2023-12-07T11:46:13;10.63;;;7.05;;
16189;SDS011;41754;51.498;7.540;2023-12-07T11:48:47;10.10;;;7.00;;
16189;SDS011;41754;51.498;7.540;2023-12-07T11:51:16;9.48;;;7.25;;
16189;SDS011;41754;51.498;7.540;2023-12-07T11:53:45;7.80;;;6.97;;
16189;SDS011;41754;51.498;7.540;2023-12-07T11:56:17;8.55;;;6.45;;
16189;SDS011;41754;51.498;7.540;2023-12-07T11:58:48;7.97;;;6.80;;
16189;SDS011;41754;51.498;7.540;2023-12-07T12:01:17;7.05;;;6.18;;
16189;SDS011;41754;51.498;7.540;2023-12-07T12:03:44;8.98;;;5.90;;
16189;SDS011;41754;51.498;7.540;2023-12-07T12:06:12;6.75;;;5.95;;
16189;SDS011;41754;51.498;7.540;2023-12-07T12:08:40;9.75;;;5.65;;
16189;SDS011;41754;51.498;7.540;2023-12-07T12:11:09;8.25;;;5.70;;
16189;SDS011;41754;51.498;7.540;2023-12-07T12:13:38;7.15;;;5.72;;
16189;SDS011;41754;51.498;7.540;2023-12-07T12:16:07;9.82;;;7.13;;
16189;SDS011;41754;51.498;7.540;2023-12-07T12:18:35;6.07;;;5.47;;
16189;SDS011;41754;51.498;7.540;2023-12-07T12:21:06;7.30;;;5.07;;
16189;SDS011;41754;51.498;7.540;2023-12-07T12:23:35;7.35;;;5.70;;
16189;SDS011;41754;51.498;7.540;2023-12-07T12:26:04;7.30;;;5.80;;
16189;SDS011;41754;51.498;7.540;2023-12-07T12:28:32;6.55;;;5.80;;
16189;SDS011;41754;51.498;7.540;2023-12-07T12:31:05;6.78;;;5.68;;
16189;SDS011;41754;51.498;7.540;2023-12-07T12:33:36;5.88;;;5.18;;
16189;SDS011;41754;51.498;7.540;2023-12-07T12:36:04;7.22;;;5.97;;
16189;SDS011;41754;51.498;7.540;2023-12-07T12:38:34;7.88;;;5.55;;
16189;SDS011;41754;51.498;7.540;2023-12-07T12:41:09;5.50;;;4.82;;
16189;SDS011;41754;51.498;7.540;2023-12-07T12:43:37;7.32;;;5.43;;
16189;SDS011;41754;51.498;7.540;2023-12-07T12:46:08;6.30;;;5.13;;
16189;SDS011;41754;51.498;7.540;2023-12-07T12:48:37;7.45;;;5.47;;
16189;SDS011;41754;51.498;7.540;2023-12-07T12:51:19;8.85;;;5.75;;
16189;SDS011;41754;51.498;7.540;2023-12-07T12:53:47;6.72;;;5.43;;
16189;SDS011;41754;51.498;7.540;2023-12-07T12:56:18;7.03;;;5.28;;
16189;SDS011;41754;51.498;7.540;2023-12-07T12:58:48;5.93;;;4.95;;
16189;SDS011;41754;51.498;7.540;2023-12-07T13:01:18;9.95;;;5.78;;
16189;SDS011;41754;51.498;7.540;2023-12-07T13:03:47;6.25;;;5.63;;
16189;SDS011;41754;51.498;7.540;2023-12-07T13:06:16;7.40;;;5.68;;
16189;SDS011;41754;51.498;7.540;2023-12-07T13:08:44;7.05;;;5.30;;
16189;SDS011;41754;51.498;7.540;2023-12-07T13:11:14;7.13;;;5.45;;
16189;SDS011;41754;51.498;7.540;2023-12-07T13:13:42;6.65;;;5.18;;
16189;SDS011;41754;51.498;7.540;2023-12-07T13:16:10;10.40;;;7.43;;
16189;SDS011;41754;51.498;7.540;2023-12-07T13:18:40;5.72;;;4.80;;
16189;SDS011;41754;51.498;7.540;2023-12-07T13:21:09;6.50;;;5.60;;
16189;SDS011;41754;51.498;7.540;2023-12-07T13:23:38;7.13;;;5.10;;
16189;SDS011;41754;51.498;7.540;2023-12-07T13:26:06;9.82;;;5.03;;
16189;SDS011;41754;51.498;7.540;2023-12-07T13:28:34;6.90;;;4.75;;
16189;SDS011;41754;51.498;7.540;2023-12-07T13:31:01;8.65;;;5.18;;
16189;SDS011;41754;51.498;7.540;2023-12-07T13:33:30;7.88;;;5.07;;
16189;SDS011;41754;51.498;7.540;2023-12-07T13:36:09;5.50;;;4.88;;
16189;SDS011;41754;51.498;7.540;2023-12-07T13:38:37;6.82;;;5.53;;
16189;SDS011;41754;51.498;7.540;2023-12-07T13:41:07;7.20;;;5.65;;
16189;SDS011;41754;51.498;7.540;2023-12-07T13:43:35;9.82;;;5.63;;
16189;SDS011;41754;51.498;7.540;2023-12-07T13:46:03;10.00;;;5.70;;
16189;SDS011;41754;51.498;7.540;2023-12-07T13:48:31;6.10;;;5.50;;
16189;SDS011;41754;51.498;7.540;2023-12-07T13:50:59;6.30;;;5.20;;
16189;SDS011;41754;51.498;7.540;2023-12-07T13:53:28;8.63;;;5.90;;
16189;SDS011;41754;51.498;7.540;2023-12-07T13:55:56;8.03;;;5.57;;
16189;SDS011;41754;51.498;7.540;2023-12-07T13:58:23;6.80;;;5.80;;
16189;SDS011;41754;51.498;7.540;2023-12-07T14:00:51;6.53;;;5.30;;
16189;SDS011;41754;51.498;7.540;2023-12-07T14:03:19;6.73;;;5.90;;
16189;SDS011;41754;51.498;7.540;2023-12-07T14:05:47;6.83;;;6.10;;
16189;SDS011;41754;51.498;7.540;2023-12-07T14:08:15;8.37;;;5.73;;
16189;SDS011;41754;51.498;7.540;2023-12-07T14:10:44;9.40;;;6.70;;
16189;SDS011;41754;51.498;7.540;2023-12-07T14:13:12;8.67;;;6.40;;
16189;SDS011;41754;51.498;7.540;2023-12-07T14:15:41;9.43;;;6.10;;
16189;SDS011;41754;51.498;7.540;2023-12-07T14:18:11;7.07;;;5.87;;
16189;SDS011;41754;51.498;7.540;2023-12-07T14:20:40;8.00;;;5.93;;
16189;SDS011;41754;51.498;7.540;2023-12-07T14:23:28;6.77;;;5.33;;
16189;SDS011;41754;51.498;7.540;2023-12-07T14:25:58;6.13;;;5.50;;
16189;SDS011;41754;51.498;7.540;2023-12-07T14:28:29;7.77;;;6.20;;
16189;SDS011;41754;51.498;7.540;2023-12-07T14:31:00;7.30;;;5.63;;
16189;SDS011;41754;51.498;7.540;2023-12-07T14:33:28;7.57;;;5.60;;
16189;SDS011;41754;51.498;7.540;2023-12-07T14:35:56;6.80;;;5.27;;
16189;SDS011;41754;51.498;7.540;2023-12-07T14:38:24;16.03;;;12.20;;
16189;SDS011;41754;51.498;7.540;2023-12-07T14:40:52;10.77;;;7.50;;